createdAt,value
2022-12-31T00:00:08.733Z,100484.41
2022-12-31T00:02:36.274Z,100487.06
2022-12-31T00:05:03.753Z,100487.88
2022-12-31T00:07:30.341Z,100477.22
2022-12-31T00:09:56.899Z,100460.44
2022-12-31T00:12:23.416Z,100466.56
2022-12-31T00:14:49.918Z,100465.47
2022-12-31T00:17:16.452Z,100469.22
2022-12-31T00:19:43.019Z,100478.78
2022-12-31T00:22:10.019Z,100486.75
2022-12-31T00:24:36.582Z,100483.00
2022-12-31T00:27:03.359Z,100489.44
2022-12-31T00:29:29.977Z,100492.38
2022-12-31T00:31:56.567Z,100490.97
2022-12-31T00:34:23.222Z,100489.91
2022-12-31T00:36:49.762Z,100499.47
2022-12-31T00:39:16.363Z,100496.31
2022-12-31T00:41:44.139Z,100500.56
2022-12-31T00:44:13.857Z,100493.66
2022-12-31T00:49:06.180Z,100497.13
2022-12-31T00:51:38.014Z,100504.00
2022-12-31T00:54:04.621Z,100500.84
2022-12-31T00:56:31.751Z,100494.75
2022-12-31T00:58:59.716Z,100502.75
2022-12-31T01:01:28.911Z,100494.47
2022-12-31T01:03:59.463Z,100499.59
2022-12-31T01:06:26.068Z,100498.81
2022-12-31T01:08:53.998Z,100492.69
2022-12-31T01:11:24.656Z,100504.44
2022-12-31T01:13:57.186Z,100493.28
2022-12-31T01:16:27.777Z,100497.06
2022-12-31T01:18:54.750Z,100497.84
2022-12-31T01:21:21.927Z,100506.09
2022-12-31T01:23:49.100Z,100497.84
2022-12-31T01:26:17.538Z,100493.41
2022-12-31T01:28:44.460Z,100499.50
2022-12-31T01:31:14.934Z,100504.34
2022-12-31T01:33:42.571Z,100499.81
2022-12-31T01:36:13.017Z,100510.75
2022-12-31T01:38:40.402Z,100501.97
2022-12-31T01:41:07.787Z,100503.88
2022-12-31T01:43:43.325Z,100493.50
2022-12-31T01:46:12.755Z,100508.69
2022-12-31T01:48:39.318Z,100508.97
2022-12-31T01:51:09.755Z,100506.31
2022-12-31T01:53:40.694Z,100504.75
2022-12-31T01:56:07.797Z,100507.44
2022-12-31T01:58:43.086Z,100515.69
2022-12-31T02:01:11.445Z,100517.88
2022-12-31T02:03:39.318Z,100520.53
2022-12-31T02:06:18.119Z,100526.94
2022-12-31T02:08:45.232Z,100524.59
2022-12-31T02:11:24.661Z,100517.38
2022-12-31T02:13:58.210Z,100505.16
2022-12-31T02:16:34.795Z,100494.00
2022-12-31T02:19:32.261Z,100498.53
2022-12-31T02:22:17.215Z,100492.44
2022-12-31T02:25:10.346Z,100488.19
2022-12-31T02:28:19.874Z,100490.84
2022-12-31T02:30:52.403Z,100489.28
2022-12-31T02:33:21.624Z,100465.63
2022-12-31T02:35:55.480Z,100466.72
2022-12-31T02:38:26.572Z,100463.75
2022-12-31T02:40:56.680Z,100465.34
2022-12-31T02:43:23.619Z,100472.06
2022-12-31T02:46:11.938Z,100463.28
2022-12-31T02:49:03.558Z,100468.91
2022-12-31T02:51:32.696Z,100485.66
2022-12-31T02:54:18.610Z,100492.06
2022-12-31T02:57:15.563Z,100495.03
2022-12-31T03:00:15.575Z,100512.06
2022-12-31T03:02:45.765Z,100513.16
2022-12-31T03:05:16.075Z,100527.53
2022-12-31T03:07:44.309Z,100519.88
2022-12-31T03:10:11.410Z,100527.84
2022-12-31T03:12:48.900Z,100534.25
2022-12-31T03:15:27.430Z,100520.16
2022-12-31T03:18:05.489Z,100534.03
2022-12-31T03:20:56.390Z,100525.00
2022-12-31T03:23:30.907Z,100531.38
2022-12-31T03:25:58.380Z,100527.16
2022-12-31T03:28:30.336Z,100530.88
2022-12-31T03:31:00.384Z,100535.44
2022-12-31T03:33:31.735Z,100535.72
2022-12-31T03:35:58.312Z,100532.28
2022-12-31T03:38:25.035Z,100533.38
2022-12-31T03:40:53.232Z,100541.34
2022-12-31T03:43:20.604Z,100515.03
2022-12-31T03:45:51.996Z,100524.09
2022-12-31T03:48:19.286Z,100528.63
2022-12-31T03:50:45.966Z,100510.28
2022-12-31T03:53:12.617Z,100514.84
2022-12-31T03:55:39.109Z,100510.91
2022-12-31T03:58:06.047Z,100514.94
2022-12-31T04:00:32.969Z,100524.78
2022-12-31T04:02:59.509Z,100517.09
2022-12-31T04:05:26.124Z,100512.06
2022-12-31T04:07:52.668Z,100509.41
2022-12-31T04:10:20.550Z,100513.19
2022-12-31T04:12:47.192Z,100516.91
2022-12-31T04:15:20.455Z,100504.69
2022-12-31T04:17:47.835Z,100497.00
2022-12-31T04:20:15.883Z,100494.63
2022-12-31T04:22:44.040Z,100486.66
2022-12-31T04:25:13.904Z,100488.03
2022-12-31T04:27:43.540Z,100480.34
2022-12-31T04:30:12.129Z,100470.00
2022-12-31T04:32:38.746Z,100482.53
2022-12-31T04:35:06.945Z,100488.63
2022-12-31T04:37:33.663Z,100490.78
2022-12-31T04:40:05.827Z,100495.31
2022-12-31T04:42:33.619Z,100505.97
2022-12-31T04:45:00.194Z,100492.16
2022-12-31T04:47:26.905Z,100495.59
2022-12-31T04:49:53.399Z,100503.59
2022-12-31T04:52:19.971Z,100508.91
2022-12-31T04:54:46.700Z,100496.72
2022-12-31T04:57:13.241Z,100502.31
2022-12-31T04:59:39.864Z,100494.63
2022-12-31T05:02:06.458Z,100504.97
2022-12-31T05:04:33.414Z,100503.09
2022-12-31T05:06:59.874Z,100497.78
2022-12-31T05:09:28.336Z,100498.88
2022-12-31T05:11:55.089Z,100525.47
2022-12-31T05:14:21.835Z,100506.84
2022-12-31T05:16:48.473Z,100493.84
2022-12-31T05:19:15.193Z,100514.53
2022-12-31T05:21:41.732Z,100497.28
2022-12-31T05:24:09.560Z,100499.66
2022-12-31T05:26:36.087Z,100496.22
2022-12-31T05:29:02.697Z,100502.59
2022-12-31T05:31:29.148Z,100503.91
2022-12-31T05:33:55.785Z,100515.81
2022-12-31T05:36:22.213Z,100505.19
2022-12-31T05:38:48.889Z,100524.56
2022-12-31T05:41:15.541Z,100527.44
2022-12-31T05:43:42.009Z,100518.38
2022-12-31T05:46:09.095Z,100513.03
2022-12-31T05:48:35.710Z,100519.34
2022-12-31T05:51:02.477Z,100514.53
2022-12-31T05:53:29.026Z,100500.94
2022-12-31T05:55:55.693Z,100502.53
2022-12-31T05:58:22.227Z,100514.44
2022-12-31T06:00:48.792Z,100501.66
2022-12-31T06:03:15.551Z,100518.59
2022-12-31T06:05:43.641Z,100516.44
2022-12-31T06:08:12.167Z,100513.44
2022-12-31T06:10:39.669Z,100501.72
2022-12-31T06:13:06.592Z,100511.78
2022-12-31T06:15:33.411Z,100512.25
2022-12-31T06:18:00.082Z,100514.13
2022-12-31T06:20:26.658Z,100523.41
2022-12-31T06:22:53.541Z,100511.69
2022-12-31T06:25:20.015Z,100512.66
2022-12-31T06:27:46.574Z,100516.41
2022-12-31T06:30:13.780Z,100518.00
2022-12-31T06:32:40.913Z,100515.34
2022-12-31T06:35:07.899Z,100520.38
2022-12-31T06:37:34.860Z,100535.72
2022-12-31T06:40:01.599Z,100528.53
2022-12-31T06:42:30.912Z,100538.88
2022-12-31T06:44:58.484Z,100538.59
2022-12-31T06:47:25.927Z,100542.31
2022-12-31T06:49:53.192Z,100541.75
2022-12-31T06:52:20.764Z,100543.00
2022-12-31T06:54:48.052Z,100546.38
2022-12-31T06:57:15.562Z,100542.59
2022-12-31T06:59:42.478Z,100543.31
2022-12-31T07:02:44.423Z,100533.16
2022-12-31T07:05:28.877Z,100536.50
2022-12-31T07:08:08.532Z,100523.34
2022-12-31T07:10:38.140Z,100531.25
2022-12-31T07:13:23.999Z,100526.28
2022-12-31T07:15:54.567Z,100533.06
2022-12-31T07:18:43.766Z,100526.97
2022-12-31T07:21:16.746Z,100523.09
2022-12-31T07:23:43.878Z,100524.09
2022-12-31T07:26:35.762Z,100533.34
2022-12-31T07:29:20.361Z,100510.34
2022-12-31T07:32:02.578Z,100522.75
2022-12-31T07:34:34.479Z,100536.50
2022-12-31T07:37:14.171Z,100534.66
2022-12-31T07:39:54.354Z,100545.88
2022-12-31T07:42:37.707Z,100546.09
2022-12-31T07:45:18.434Z,100539.44
2022-12-31T07:47:45.332Z,100553.13
2022-12-31T07:50:15.950Z,100545.66
2022-12-31T07:52:43.031Z,100550.88
2022-12-31T07:55:10.926Z,100564.25
2022-12-31T07:57:47.363Z,100557.06
2022-12-31T08:00:15.680Z,100560.25
2022-12-31T08:02:54.106Z,100550.22
2022-12-31T08:05:31.922Z,100541.47
2022-12-31T08:08:17.820Z,100553.28
2022-12-31T08:11:11.037Z,100576.06
2022-12-31T08:13:39.051Z,100570.56
2022-12-31T08:16:11.414Z,100568.09
2022-12-31T08:18:38.250Z,100565.59
2022-12-31T08:21:42.289Z,100568.72
2022-12-31T08:24:30.659Z,100570.97
2022-12-31T08:27:04.032Z,100567.66
2022-12-31T08:29:42.440Z,100570.81
2022-12-31T08:32:26.450Z,100573.47
2022-12-31T08:35:03.353Z,100590.31
2022-12-31T08:37:40.411Z,100600.66
2022-12-31T08:40:19.152Z,100620.94
2022-12-31T08:42:53.674Z,100620.66
2022-12-31T08:45:29.079Z,100621.44
2022-12-31T08:48:08.466Z,100636.81
2022-12-31T08:50:35.198Z,100633.66
2022-12-31T08:53:01.976Z,100637.13
2022-12-31T08:55:30.120Z,100662.44
2022-12-31T08:58:19.437Z,100656.63
2022-12-31T09:00:48.205Z,100677.19
2022-12-31T09:03:25.648Z,100679.09
2022-12-31T09:06:00.541Z,100683.34
2022-12-31T09:08:39.484Z,100671.53
2022-12-31T09:11:43.466Z,100684.59
2022-12-31T09:14:18.378Z,100688.34
2022-12-31T09:17:15.401Z,100696.69
2022-12-31T09:19:42.092Z,100680.34
2022-12-31T09:22:10.626Z,100699.69
2022-12-31T09:24:38.621Z,100694.34
2022-12-31T09:27:16.107Z,100699.56
2022-12-31T09:30:00.698Z,100693.59
2022-12-31T09:32:40.065Z,100698.94
2022-12-31T09:35:30.626Z,100693.13
2022-12-31T09:38:12.913Z,100685.94
2022-12-31T09:40:57.579Z,100687.03
2022-12-31T09:44:01.837Z,100695.84
2022-12-31T09:47:05.324Z,100700.25
2022-12-31T09:49:44.016Z,100700.88
2022-12-31T09:52:44.618Z,100704.03
2022-12-31T09:55:30.305Z,100703.44
2022-12-31T09:57:56.820Z,100714.28
2022-12-31T10:01:01.513Z,100703.91
2022-12-31T10:03:50.903Z,100701.72
2022-12-31T10:06:46.606Z,100702.97
2022-12-31T10:09:30.580Z,100706.59
2022-12-31T10:12:20.706Z,100706.78
2022-12-31T10:15:17.270Z,100700.94
2022-12-31T10:18:16.714Z,100709.63
2022-12-31T10:20:53.026Z,100704.09
2022-12-31T10:23:19.650Z,100705.84
2022-12-31T10:26:11.114Z,100708.81
2022-12-31T10:28:37.505Z,100684.91
2022-12-31T10:31:15.170Z,100703.47
2022-12-31T10:33:43.386Z,100718.75
2022-12-31T10:36:20.977Z,100714.06
2022-12-31T10:39:14.389Z,100713.72
2022-12-31T10:42:05.148Z,100704.13
2022-12-31T10:44:43.977Z,100708.84
2022-12-31T10:47:44.831Z,100707.91
2022-12-31T10:50:49.059Z,100720.16
2022-12-31T10:53:41.961Z,100715.28
2022-12-31T10:56:31.089Z,100713.69
2022-12-31T10:59:13.559Z,100706.28
2022-12-31T11:01:49.035Z,100722.81
2022-12-31T11:04:28.191Z,100715.13
2022-12-31T11:07:07.366Z,100709.94
2022-12-31T11:10:18.556Z,100722.69
2022-12-31T11:13:04.007Z,100711.81
2022-12-31T11:15:33.540Z,100723.31
2022-12-31T11:18:30.590Z,100724.44
2022-12-31T11:21:18.382Z,100716.41
2022-12-31T11:24:17.648Z,100708.38
2022-12-31T11:26:56.255Z,100702.06
2022-12-31T11:29:29.014Z,100707.44
2022-12-31T11:31:58.724Z,100713.88
2022-12-31T11:35:02.757Z,100710.56
2022-12-31T11:37:40.315Z,100703.50
2022-12-31T11:40:15.627Z,100720.34
2022-12-31T11:42:54.466Z,100715.59
2022-12-31T11:45:39.430Z,100716.72
2022-12-31T11:48:30.556Z,100713.72
2022-12-31T11:51:19.458Z,100718.25
2022-12-31T11:54:07.784Z,100726.28
2022-12-31T11:56:38.956Z,100726.78
2022-12-31T11:59:18.846Z,100723.94
2022-12-31T12:01:56.254Z,100717.94
2022-12-31T12:04:23.070Z,100714.94
2022-12-31T12:06:50.324Z,100715.59
2022-12-31T12:09:27.743Z,100707.06
2022-12-31T12:12:00.358Z,100701.69
2022-12-31T12:14:41.960Z,100703.41
2022-12-31T12:17:32.110Z,100706.91
2022-12-31T12:20:18.570Z,100707.38
2022-12-31T12:22:51.330Z,100690.50
2022-12-31T12:25:23.876Z,100701.66
2022-12-31T12:27:50.534Z,100687.19
2022-12-31T12:30:24.834Z,100705.00
2022-12-31T12:33:01.913Z,100695.81
2022-12-31T12:35:35.282Z,100687.31
2022-12-31T12:38:06.026Z,100684.31
2022-12-31T12:40:34.734Z,100695.50
2022-12-31T12:43:03.335Z,100689.84
2022-12-31T12:45:42.112Z,100685.56
2022-12-31T12:48:18.211Z,100678.66
2022-12-31T12:50:47.974Z,100689.53
2022-12-31T12:53:26.962Z,100694.53
2022-12-31T12:56:12.747Z,100699.91
2022-12-31T12:58:55.083Z,100697.06
2022-12-31T13:01:34.904Z,100701.94
2022-12-31T13:04:34.720Z,100711.53
2022-12-31T13:07:30.216Z,100712.81
2022-12-31T13:10:15.968Z,100725.28
2022-12-31T13:15:52.352Z,100730.75
2022-12-31T13:18:46.192Z,100725.09
2022-12-31T13:21:28.238Z,100730.44
2022-12-31T13:24:01.075Z,100724.78
2022-12-31T13:26:30.320Z,100722.88
2022-12-31T13:29:00.484Z,100732.03
2022-12-31T13:31:34.171Z,100736.47
2022-12-31T13:34:10.844Z,100741.81
2022-12-31T13:36:41.899Z,100734.09
2022-12-31T13:39:24.347Z,100742.91
2022-12-31T13:41:58.120Z,100742.44
2022-12-31T13:44:35.272Z,100731.72
2022-12-31T13:47:10.929Z,100739.28
2022-12-31T13:49:49.145Z,100741.50
2022-12-31T13:52:34.651Z,100748.44
2022-12-31T13:55:31.938Z,100746.41
2022-12-31T13:58:09.565Z,100740.25
2022-12-31T14:00:58.792Z,100745.31
2022-12-31T14:03:40.449Z,100737.88
2022-12-31T14:06:10.013Z,100746.72
2022-12-31T14:08:36.745Z,100746.09
2022-12-31T14:11:03.804Z,100730.47
2022-12-31T14:13:43.307Z,100747.63
2022-12-31T14:16:40.444Z,100739.28
2022-12-31T14:19:13.085Z,100730.00
2022-12-31T14:21:47.580Z,100738.97
2022-12-31T14:24:30.027Z,100752.06
2022-12-31T14:27:01.151Z,100736.47
2022-12-31T14:29:39.736Z,100744.81
2022-12-31T14:32:27.502Z,100762.91
2022-12-31T14:35:23.168Z,100761.34
2022-12-31T14:37:55.757Z,100788.16
2022-12-31T14:40:32.091Z,100778.72
2022-12-31T14:43:22.579Z,100777.31
2022-12-31T14:46:10.586Z,100774.00
2022-12-31T14:48:56.299Z,100776.22
2022-12-31T14:51:28.595Z,100776.38
2022-12-31T14:53:57.818Z,100779.19
2022-12-31T14:56:45.503Z,100788.50
2022-12-31T14:59:34.437Z,100792.59
2022-12-31T15:02:27.191Z,100797.94
2022-12-31T15:05:10.549Z,100783.94
2022-12-31T15:07:43.702Z,100797.00
2022-12-31T15:10:38.355Z,100805.19
2022-12-31T15:13:32.691Z,100803.78
2022-12-31T15:16:30.335Z,100797.63
2022-12-31T15:19:41.642Z,100790.81
2022-12-31T15:22:32.731Z,100780.47
2022-12-31T15:25:01.158Z,100767.38
2022-12-31T15:27:35.975Z,100782.00
2022-12-31T15:30:04.092Z,100774.13
2022-12-31T15:32:40.783Z,100770.03
2022-12-31T15:35:30.928Z,100770.97
2022-12-31T15:38:00.612Z,100757.72
2022-12-31T15:40:29.561Z,100749.69
2022-12-31T15:43:07.921Z,100754.75
2022-12-31T15:45:38.525Z,100755.34
2022-12-31T15:48:26.880Z,100759.13
2022-12-31T15:50:57.922Z,100757.84
2022-12-31T15:53:38.957Z,100759.41
2022-12-31T15:56:07.704Z,100763.03
2022-12-31T15:58:36.607Z,100763.03
2022-12-31T16:01:20.224Z,100759.72
2022-12-31T16:03:51.623Z,100772.31
2022-12-31T16:06:18.592Z,100774.38
2022-12-31T16:08:48.192Z,100763.81
2022-12-31T16:11:16.209Z,100752.44
2022-12-31T16:13:47.040Z,100764.44
2022-12-31T16:16:23.294Z,100774.53
2022-12-31T16:18:50.528Z,100768.66
2022-12-31T16:21:28.149Z,100770.56
2022-12-31T16:23:58.180Z,100751.34
2022-12-31T16:26:31.413Z,100750.22
2022-12-31T16:29:00.839Z,100744.22
2022-12-31T16:31:29.032Z,100747.50
2022-12-31T16:34:11.006Z,100742.78
2022-12-31T16:36:37.627Z,100745.47
2022-12-31T16:39:21.316Z,100745.47
2022-12-31T16:41:47.982Z,100749.72
2022-12-31T16:44:25.825Z,100745.47
2022-12-31T16:46:56.475Z,100736.00
2022-12-31T16:49:23.713Z,100739.34
2022-12-31T16:51:50.468Z,100745.78
2022-12-31T16:54:23.567Z,100743.88
2022-12-31T16:56:51.557Z,100743.56
2022-12-31T16:59:34.945Z,100749.72
2022-12-31T17:02:04.541Z,100741.34
2022-12-31T17:04:31.358Z,100741.03
2022-12-31T17:07:26.703Z,100715.69
2022-12-31T17:10:08.417Z,100733.47
2022-12-31T17:13:01.041Z,100731.59
2022-12-31T17:15:38.331Z,100751.28
2022-12-31T17:18:06.179Z,100745.78
2022-12-31T17:20:34.239Z,100737.59
2022-12-31T17:23:05.754Z,100732.84
2022-12-31T17:25:36.008Z,100725.94
2022-12-31T17:28:19.445Z,100735.84
2022-12-31T17:30:46.088Z,100735.22
2022-12-31T17:33:12.599Z,100733.97
2022-12-31T17:35:42.341Z,100720.56
2022-12-31T17:38:18.085Z,100732.84
2022-12-31T17:40:51.593Z,100723.25
2022-12-31T17:43:23.666Z,100716.00
2022-12-31T17:45:54.745Z,100732.38
2022-12-31T17:48:27.226Z,100733.50
2022-12-31T17:50:59.867Z,100727.22
2022-12-31T17:53:26.943Z,100726.09
2022-12-31T17:55:56.033Z,100744.84
2022-12-31T17:58:29.392Z,100741.22
2022-12-31T18:00:58.269Z,100746.25
2022-12-31T18:03:25.265Z,100745.47
2022-12-31T18:05:52.029Z,100734.75
2022-12-31T18:08:18.567Z,100733.63
2022-12-31T18:10:45.419Z,100744.03
2022-12-31T18:13:23.925Z,100745.16
2022-12-31T18:15:51.453Z,100737.59
2022-12-31T18:18:25.472Z,100743.72
2022-12-31T18:20:57.754Z,100745.28
2022-12-31T18:23:27.506Z,100740.25
2022-12-31T18:25:54.794Z,100739.59
2022-12-31T18:28:21.370Z,100730.63
2022-12-31T18:30:48.298Z,100731.88
2022-12-31T18:33:20.061Z,100731.56
2022-12-31T18:38:34.067Z,100743.53
2022-12-31T18:41:00.675Z,100746.09
2022-12-31T18:43:27.728Z,100743.25
2022-12-31T18:45:54.268Z,100747.00
2022-12-31T18:48:20.931Z,100748.59
2022-12-31T18:50:48.494Z,100733.28
2022-12-31T18:53:20.462Z,100736.91
2022-12-31T18:55:53.823Z,100762.94
2022-12-31T18:58:25.247Z,100741.19
2022-12-31T19:00:52.822Z,100751.09
2022-12-31T19:03:23.076Z,100754.91
2022-12-31T19:05:51.348Z,100756.59
2022-12-31T19:08:19.602Z,100767.31
2022-12-31T19:10:52.014Z,100761.66
2022-12-31T19:13:20.114Z,100760.53
2022-12-31T19:15:54.288Z,100766.22
2022-12-31T19:18:20.881Z,100757.84
2022-12-31T19:20:47.890Z,100769.38
2022-12-31T19:23:20.529Z,100769.84
2022-12-31T19:25:50.318Z,100778.81
2022-12-31T19:28:20.949Z,100766.22
2022-12-31T19:30:48.197Z,100776.59
2022-12-31T19:33:15.238Z,100755.16
2022-12-31T19:35:42.313Z,100765.56
2022-12-31T19:38:20.572Z,100766.53
2022-12-31T19:40:48.334Z,100767.63
2022-12-31T19:43:17.559Z,100756.00
2022-12-31T19:45:45.345Z,100762.63
2022-12-31T19:48:14.302Z,100757.44
2022-12-31T19:50:44.152Z,100757.56
2022-12-31T19:53:13.750Z,100766.28
2022-12-31T19:55:40.403Z,100770.81
2022-12-31T19:58:07.476Z,100775.41
2022-12-31T20:00:34.819Z,100795.13
2022-12-31T20:03:01.549Z,100787.22
2022-12-31T20:05:28.165Z,100775.41
2022-12-31T20:07:55.101Z,100780.16
2022-12-31T20:10:21.639Z,100794.94
2022-12-31T20:12:48.189Z,100777.13
2022-12-31T20:15:14.663Z,100783.13
2022-12-31T20:17:41.203Z,100786.91
2022-12-31T20:20:08.373Z,100794.63
2022-12-31T20:22:35.131Z,100770.19
2022-12-31T20:25:01.705Z,100803.63
2022-12-31T20:27:28.331Z,100805.97
2022-12-31T20:29:54.845Z,100810.53
2022-12-31T20:32:21.405Z,100799.34
2022-12-31T20:34:48.290Z,100776.16
2022-12-31T20:37:14.772Z,100779.63
2022-12-31T20:39:42.725Z,100778.50
2022-12-31T20:42:09.295Z,100783.09
2022-12-31T20:44:36.067Z,100794.59
2022-12-31T20:47:02.909Z,100789.69
2022-12-31T20:50:00.968Z,100802.66
2022-12-31T20:52:16.021Z,100800.63
2022-12-31T20:54:42.585Z,100799.66
2022-12-31T20:57:09.182Z,100799.00
2022-12-31T20:59:36.904Z,100797.91
2022-12-31T21:04:50.570Z,100800.88
2022-12-31T21:07:17.250Z,100808.78
2022-12-31T21:09:43.705Z,100801.72
2022-12-31T21:12:30.116Z,100802.69
2022-12-31T21:14:56.800Z,100818.47
2022-12-31T21:17:23.593Z,100807.91
2022-12-31T21:19:50.119Z,100811.84
2022-12-31T21:22:16.684Z,100799.41
2022-12-31T21:24:43.190Z,100808.75
2022-12-31T21:27:09.804Z,100828.16
2022-12-31T21:29:50.390Z,100824.53
2022-12-31T21:32:23.538Z,100830.81
2022-12-31T21:35:14.736Z,100835.25
2022-12-31T21:37:58.644Z,100836.50
2022-12-31T21:40:23.218Z,100855.59
2022-12-31T21:42:49.859Z,100844.72
2022-12-31T21:45:16.465Z,100864.09
2022-12-31T21:48:01.659Z,100856.38
2022-12-31T21:50:28.456Z,100851.19
2022-12-31T21:52:54.972Z,100851.03
2022-12-31T21:55:39.756Z,100853.84
2022-12-31T22:01:11.678Z,100856.38
2022-12-31T22:03:38.459Z,100854.34
2022-12-31T22:06:12.279Z,100854.63
2022-12-31T22:08:40.691Z,100853.88
2022-12-31T22:11:08.345Z,100859.53
2022-12-31T22:13:35.460Z,100852.91
2022-12-31T22:16:05.572Z,100846.78
2022-12-31T22:18:35.156Z,100837.63
2022-12-31T22:21:20.716Z,100842.19
2022-12-31T22:23:51.865Z,100855.91
2022-12-31T22:26:21.373Z,100857.78
2022-12-31T22:28:48.058Z,100858.09
2022-12-31T22:31:24.676Z,100860.78
2022-12-31T22:33:51.572Z,100858.41
2022-12-31T22:36:20.458Z,100858.41
2022-12-31T22:38:48.391Z,100864.56
2022-12-31T22:41:20.032Z,100851.50
2022-12-31T22:43:49.691Z,100851.81
2022-12-31T22:46:18.078Z,100846.91
2022-12-31T22:48:44.919Z,100861.09
2022-12-31T22:51:12.461Z,100862.97
2022-12-31T22:53:41.210Z,100869.13
2022-12-31T22:56:09.223Z,100871.78
2022-12-31T22:58:39.543Z,100880.94
2022-12-31T23:01:14.901Z,100874.00
2022-12-31T23:03:42.527Z,100878.25
2022-12-31T23:06:10.734Z,100883.31
2022-12-31T23:08:37.429Z,100879.03
2022-12-31T23:11:06.005Z,100882.84
2022-12-31T23:13:59.577Z,100885.81
2022-12-31T23:16:47.638Z,100882.34
2022-12-31T23:19:34.344Z,100889.13
2022-12-31T23:22:19.482Z,100898.25
2022-12-31T23:24:46.045Z,100903.59
2022-12-31T23:27:12.940Z,100889.13
2022-12-31T23:29:46.528Z,100909.72
2022-12-31T23:32:15.534Z,100915.91
2022-12-31T23:34:43.352Z,100917.28
2022-12-31T23:37:10.327Z,100910.06
2022-12-31T23:39:36.910Z,100915.91
2022-12-31T23:42:03.673Z,100912.09
2022-12-31T23:44:30.655Z,100900.63
2022-12-31T23:46:57.326Z,100914.47
2022-12-31T23:49:24.007Z,100913.66
2022-12-31T23:51:50.513Z,100921.69
2022-12-31T23:54:17.903Z,100926.28
2022-12-31T23:56:44.520Z,100920.13
2022-12-31T23:59:12.297Z,100934.63
